Imarui, Brazil
Current Conditions -  °F | °C
As of 5:25 PM on Thursday 27 Nov 2014 (Local Time) from SBCM Reporting Station
Broken Clouds Broken Clouds  
Wind Chill: 75°   Ceiling: 4000
Heat Index: 75°   Visibility: 6mi
Dew Point: 68°   Wind: 12mph
Humidity: 78%   Direction: 180°S
Pressure: 29.91"   Gusts: NA
Location:  28.34°S, 48.82°W
Report Text: SBCM 271925Z 18010KT 9999 SCT016 BKN040 BKN070 24/20 Q1013
Loading
Personal Weather Stations






























Interactive Weather Map New forecast layout! Learn more

10-Day Weather Forecast

Advertisements
Track Severe Weather on mobile